FAPP

Polokwane International Airport

Airport
ICAO code
FAPP
Summary
ICAO Region
AFI
ICAO Territory
Location

, Limpopo

Serving
Potgietersrus
Elevation
4076 ft
Coordinates
23° 50' 43" S , 29° 27' 31" E
Metar
FAPP 222300Z AUTO 22004KT //// // ////// 20/18 Q1021

Runways

Designator Length Width Surface Rops
5/23 2320 45 ASP No/No
1/19 2560 45 ASP No/No

Airport map

Aerial View

SKYbrary Partners:

Safety knowledge contributed by: